sensor_id;sensor_type;location;lat;lon;timestamp;pressure;altitude;pressure_sealevel;temperature;humidity
11621;BME280;5866;49.094;11.900;2022-07-01T00:01:42;95858.59;;;20.94;100.00
11621;BME280;5866;49.094;11.900;2022-07-01T00:04:10;95866.78;;;20.53;100.00
11621;BME280;5866;49.094;11.900;2022-07-01T00:06:38;95874.06;;;20.64;100.00
11621;BME280;5866;49.094;11.900;2022-07-01T00:09:06;95878.66;;;20.75;100.00
11621;BME280;5866;49.094;11.900;2022-07-01T00:11:33;95863.63;;;20.91;100.00
11621;BME280;5866;49.094;11.900;2022-07-01T00:14:01;95873.47;;;20.97;100.00
11621;BME280;5866;49.094;11.900;2022-07-01T00:16:30;95879.91;;;20.84;100.00
11621;BME280;5866;49.094;11.900;2022-07-01T00:18:57;95884.00;;;20.64;100.00
11621;BME280;5866;49.094;11.900;2022-07-01T00:21:25;95885.19;;;20.56;100.00
11621;BME280;5866;49.094;11.900;2022-07-01T00:23:52;95883.78;;;20.65;100.00
11621;BME280;5866;49.094;11.900;2022-07-01T00:26:20;95887.88;;;20.56;100.00
11621;BME280;5866;49.094;11.900;2022-07-01T00:28:47;95901.06;;;20.34;100.00
11621;BME280;5866;49.094;11.900;2022-07-01T00:31:15;95894.66;;;20.47;100.00
11621;BME280;5866;49.094;11.900;2022-07-01T00:33:44;95896.09;;;20.61;100.00
11621;BME280;5866;49.094;11.900;2022-07-01T00:36:12;95918.34;;;20.68;100.00
11621;BME280;5866;49.094;11.900;2022-07-01T00:38:39;95926.09;;;20.76;100.00
11621;BME280;5866;49.094;11.900;2022-07-01T00:41:07;95916.38;;;20.75;100.00
11621;BME280;5866;49.094;11.900;2022-07-01T00:43:35;95936.63;;;20.66;100.00
11621;BME280;5866;49.094;11.900;2022-07-01T00:46:20;95934.53;;;20.68;100.00
11621;BME280;5866;49.094;11.900;2022-07-01T00:48:50;95934.28;;;20.70;100.00
11621;BME280;5866;49.094;11.900;2022-07-01T00:51:18;95930.78;;;20.69;100.00
11621;BME280;5866;49.094;11.900;2022-07-01T00:53:46;95934.41;;;20.63;100.00
11621;BME280;5866;49.094;11.900;2022-07-01T00:56:15;95940.84;;;20.62;100.00
11621;BME280;5866;49.094;11.900;2022-07-01T00:58:43;95939.06;;;20.56;100.00
11621;BME280;5866;49.094;11.900;2022-07-01T01:01:10;95931.94;;;20.50;100.00
11621;BME280;5866;49.094;11.900;2022-07-01T01:03:38;95938.72;;;20.52;100.00
11621;BME280;5866;49.094;11.900;2022-07-01T01:06:08;95939.41;;;20.48;100.00
11621;BME280;5866;49.094;11.900;2022-07-01T01:08:36;95947.25;;;20.49;100.00
11621;BME280;5866;49.094;11.900;2022-07-01T01:11:05;95949.13;;;20.49;100.00
11621;BME280;5866;49.094;11.900;2022-07-01T01:13:33;95958.38;;;20.41;100.00
11621;BME280;5866;49.094;11.900;2022-07-01T01:16:01;95954.41;;;20.44;100.00
11621;BME280;5866;49.094;11.900;2022-07-01T01:18:28;95940.63;;;20.34;100.00
11621;BME280;5866;49.094;11.900;2022-07-01T01:20:57;95934.41;;;20.22;100.00
11621;BME280;5866;49.094;11.900;2022-07-01T01:23:25;95926.47;;;20.09;100.00
11621;BME280;5866;49.094;11.900;2022-07-01T01:25:53;95917.03;;;20.18;100.00
11621;BME280;5866;49.094;11.900;2022-07-01T01:28:20;95907.75;;;20.14;100.00
11621;BME280;5866;49.094;11.900;2022-07-01T01:30:48;95909.00;;;20.00;100.00
11621;BME280;5866;49.094;11.900;2022-07-01T01:33:15;95932.56;;;20.04;100.00
11621;BME280;5866;49.094;11.900;2022-07-01T01:35:43;95933.47;;;19.98;100.00
11621;BME280;5866;49.094;11.900;2022-07-01T01:38:12;95924.41;;;19.93;100.00
11621;BME280;5866;49.094;11.900;2022-07-01T01:40:39;95921.72;;;19.93;100.00
11621;BME280;5866;49.094;11.900;2022-07-01T01:43:07;95922.19;;;19.90;100.00
11621;BME280;5866;49.094;11.900;2022-07-01T01:45:34;95922.88;;;19.85;100.00
11621;BME280;5866;49.094;11.900;2022-07-01T01:48:02;95932.06;;;19.77;100.00
11621;BME280;5866;49.094;11.900;2022-07-01T01:50:30;95942.03;;;19.77;100.00
11621;BME280;5866;49.094;11.900;2022-07-01T01:52:57;95938.03;;;19.79;100.00
11621;BME280;5866;49.094;11.900;2022-07-01T01:55:26;95937.31;;;19.72;100.00
11621;BME280;5866;49.094;11.900;2022-07-01T01:57:54;95933.59;;;19.55;100.00
11621;BME280;5866;49.094;11.900;2022-07-01T02:00:21;95915.28;;;19.46;100.00
11621;BME280;5866;49.094;11.900;2022-07-01T02:02:50;95936.94;;;19.51;100.00
11621;BME280;5866;49.094;11.900;2022-07-01T02:05:18;95936.63;;;19.41;100.00
11621;BME280;5866;49.094;11.900;2022-07-01T02:07:46;95946.44;;;19.53;100.00
11621;BME280;5866;49.094;11.900;2022-07-01T02:10:13;95941.78;;;19.42;100.00
11621;BME280;5866;49.094;11.900;2022-07-01T02:12:42;95950.56;;;19.56;100.00
11621;BME280;5866;49.094;11.900;2022-07-01T02:15:10;95936.09;;;19.32;100.00
11621;BME280;5866;49.094;11.900;2022-07-01T02:17:37;95929.28;;;19.30;100.00
11621;BME280;5866;49.094;11.900;2022-07-01T02:20:06;95935.31;;;19.25;100.00
11621;BME280;5866;49.094;11.900;2022-07-01T02:22:34;95932.31;;;19.15;100.00
11621;BME280;5866;49.094;11.900;2022-07-01T02:25:01;95949.34;;;19.09;100.00
11621;BME280;5866;49.094;11.900;2022-07-01T02:27:29;95951.44;;;19.07;100.00
11621;BME280;5866;49.094;11.900;2022-07-01T02:29:57;95939.84;;;19.07;100.00
11621;BME280;5866;49.094;11.900;2022-07-01T02:32:25;95945.75;;;18.97;100.00
11621;BME280;5866;49.094;11.900;2022-07-01T02:34:52;95942.81;;;18.98;100.00
11621;BME280;5866;49.094;11.900;2022-07-01T02:37:20;95953.81;;;18.97;100.00
11621;BME280;5866;49.094;11.900;2022-07-01T02:39:48;95958.78;;;18.93;100.00
11621;BME280;5866;49.094;11.900;2022-07-01T02:42:15;95966.47;;;18.90;100.00
11621;BME280;5866;49.094;11.900;2022-07-01T02:44:53;95982.22;;;18.86;100.00
11621;BME280;5866;49.094;11.900;2022-07-01T02:47:22;95994.56;;;18.94;100.00
11621;BME280;5866;49.094;11.900;2022-07-01T02:49:50;96000.75;;;18.94;100.00
11621;BME280;5866;49.094;11.900;2022-07-01T02:52:22;95999.19;;;18.87;100.00
11621;BME280;5866;49.094;11.900;2022-07-01T02:54:50;96007.44;;;18.85;100.00
11621;BME280;5866;49.094;11.900;2022-07-01T02:57:17;96004.88;;;18.97;100.00
11621;BME280;5866;49.094;11.900;2022-07-01T02:59:45;96008.13;;;18.81;100.00
11621;BME280;5866;49.094;11.900;2022-07-01T03:02:12;96015.72;;;18.84;100.00
11621;BME280;5866;49.094;11.900;2022-07-01T03:04:41;96015.66;;;18.66;100.00
11621;BME280;5866;49.094;11.900;2022-07-01T03:07:09;96023.28;;;18.69;100.00
11621;BME280;5866;49.094;11.900;2022-07-01T03:09:37;96019.97;;;18.67;100.00
11621;BME280;5866;49.094;11.900;2022-07-01T03:12:06;96027.88;;;18.62;100.00
11621;BME280;5866;49.094;11.900;2022-07-01T03:14:48;96016.31;;;18.61;100.00
11621;BME280;5866;49.094;11.900;2022-07-01T03:17:16;96021.56;;;18.81;100.00
11621;BME280;5866;49.094;11.900;2022-07-01T03:19:45;96024.06;;;18.76;100.00
11621;BME280;5866;49.094;11.900;2022-07-01T03:22:12;96032.94;;;18.76;100.00
11621;BME280;5866;49.094;11.900;2022-07-01T03:24:40;96029.50;;;18.63;100.00
11621;BME280;5866;49.094;11.900;2022-07-01T03:27:08;96023.53;;;18.61;100.00
11621;BME280;5866;49.094;11.900;2022-07-01T03:29:36;96021.31;;;18.58;100.00
11621;BME280;5866;49.094;11.900;2022-07-01T03:32:03;96018.72;;;18.69;100.00
11621;BME280;5866;49.094;11.900;2022-07-01T03:34:32;96023.78;;;18.53;100.00
11621;BME280;5866;49.094;11.900;2022-07-01T03:37:00;96026.09;;;18.43;100.00
11621;BME280;5866;49.094;11.900;2022-07-01T03:39:28;96026.75;;;18.45;100.00
11621;BME280;5866;49.094;11.900;2022-07-01T03:41:56;96044.72;;;18.44;100.00
11621;BME280;5866;49.094;11.900;2022-07-01T03:44:23;96044.91;;;18.43;100.00
11621;BME280;5866;49.094;11.900;2022-07-01T03:46:51;96039.25;;;18.64;100.00
11621;BME280;5866;49.094;11.900;2022-07-01T03:49:18;96055.47;;;18.75;100.00
11621;BME280;5866;49.094;11.900;2022-07-01T03:51:46;96054.13;;;18.91;100.00
11621;BME280;5866;49.094;11.900;2022-07-01T03:54:15;96049.75;;;18.65;100.00
11621;BME280;5866;49.094;11.900;2022-07-01T03:57:00;96066.88;;;18.71;100.00
11621;BME280;5866;49.094;11.900;2022-07-01T03:59:29;96083.97;;;18.83;100.00
11621;BME280;5866;49.094;11.900;2022-07-01T04:01:58;96089.25;;;18.96;100.00
11621;BME280;5866;49.094;11.900;2022-07-01T04:04:26;96095.28;;;19.23;100.00
11621;BME280;5866;49.094;11.900;2022-07-01T04:06:56;96098.59;;;19.18;100.00
11621;BME280;5866;49.094;11.900;2022-07-01T04:09:27;96110.22;;;19.43;100.00
11621;BME280;5866;49.094;11.900;2022-07-01T04:11:55;96107.59;;;19.30;100.00
11621;BME280;5866;49.094;11.900;2022-07-01T04:14:23;96117.69;;;19.41;100.00
11621;BME280;5866;49.094;11.900;2022-07-01T04:16:52;96129.00;;;19.50;100.00
11621;BME280;5866;49.094;11.900;2022-07-01T04:19:20;96128.59;;;19.46;100.00
11621;BME280;5866;49.094;11.900;2022-07-01T04:21:48;96126.06;;;18.58;100.00
11621;BME280;5866;49.094;11.900;2022-07-01T04:24:34;96121.81;;;18.31;100.00
11621;BME280;5866;49.094;11.900;2022-07-01T04:27:03;96128.34;;;18.54;100.00
11621;BME280;5866;49.094;11.900;2022-07-01T04:29:30;96125.88;;;18.53;100.00
11621;BME280;5866;49.094;11.900;2022-07-01T04:31:58;96123.53;;;18.69;100.00
11621;BME280;5866;49.094;11.900;2022-07-01T04:34:26;96122.59;;;18.44;100.00
11621;BME280;5866;49.094;11.900;2022-07-01T04:36:53;96108.16;;;18.45;100.00
11621;BME280;5866;49.094;11.900;2022-07-01T04:39:22;96104.44;;;18.26;100.00
11621;BME280;5866;49.094;11.900;2022-07-01T04:41:51;96111.16;;;17.91;100.00
11621;BME280;5866;49.094;11.900;2022-07-01T04:44:29;96118.78;;;18.07;100.00
11621;BME280;5866;49.094;11.900;2022-07-01T04:46:57;96127.16;;;18.81;100.00
11621;BME280;5866;49.094;11.900;2022-07-01T04:49:26;96125.38;;;19.31;100.00
11621;BME280;5866;49.094;11.900;2022-07-01T04:51:54;96124.66;;;19.18;100.00
11621;BME280;5866;49.094;11.900;2022-07-01T04:54:22;96129.06;;;18.81;100.00
11621;BME280;5866;49.094;11.900;2022-07-01T04:56:51;96120.19;;;18.74;100.00
11621;BME280;5866;49.094;11.900;2022-07-01T04:59:19;96131.63;;;18.94;100.00
11621;BME280;5866;49.094;11.900;2022-07-01T05:01:47;96129.28;;;19.04;100.00
11621;BME280;5866;49.094;11.900;2022-07-01T05:04:16;96125.31;;;19.44;100.00
11621;BME280;5866;49.094;11.900;2022-07-01T05:06:45;96139.09;;;19.23;100.00
11621;BME280;5866;49.094;11.900;2022-07-01T05:09:12;96125.50;;;19.92;100.00
11621;BME280;5866;49.094;11.900;2022-07-01T05:11:40;96133.47;;;19.62;100.00
11621;BME280;5866;49.094;11.900;2022-07-01T05:14:09;96127.66;;;19.83;100.00
11621;BME280;5866;49.094;11.900;2022-07-01T05:16:37;96129.91;;;19.87;100.00
11621;BME280;5866;49.094;11.900;2022-07-01T05:19:05;96128.78;;;19.20;100.00
11621;BME280;5866;49.094;11.900;2022-07-01T05:21:50;96128.47;;;19.10;100.00
11621;BME280;5866;49.094;11.900;2022-07-01T05:24:25;96128.13;;;18.93;100.00
11621;BME280;5866;49.094;11.900;2022-07-01T05:26:54;96133.06;;;18.96;100.00
11621;BME280;5866;49.094;11.900;2022-07-01T05:29:23;96133.59;;;19.67;100.00
11621;BME280;5866;49.094;11.900;2022-07-01T05:31:51;96140.03;;;19.66;100.00
11621;BME280;5866;49.094;11.900;2022-07-01T05:34:19;96151.25;;;19.63;100.00
11621;BME280;5866;49.094;11.900;2022-07-01T05:36:47;96153.75;;;19.34;100.00
11621;BME280;5866;49.094;11.900;2022-07-01T05:39:14;96155.25;;;19.79;100.00
11621;BME280;5866;49.094;11.900;2022-07-01T05:41:42;96161.63;;;19.85;100.00
11621;BME280;5866;49.094;11.900;2022-07-01T05:44:09;96163.19;;;19.12;100.00
11621;BME280;5866;49.094;11.900;2022-07-01T05:46:38;96172.19;;;19.24;100.00
11621;BME280;5866;49.094;11.900;2022-07-01T05:49:06;96180.03;;;19.25;100.00
11621;BME280;5866;49.094;11.900;2022-07-01T05:51:34;96193.38;;;19.14;100.00
11621;BME280;5866;49.094;11.900;2022-07-01T05:54:02;96192.19;;;19.03;100.00
11621;BME280;5866;49.094;11.900;2022-07-01T05:56:29;96201.53;;;19.32;100.00
11621;BME280;5866;49.094;11.900;2022-07-01T05:58:57;96204.38;;;19.43;100.00
11621;BME280;5866;49.094;11.900;2022-07-01T06:01:24;96188.19;;;18.74;100.00
11621;BME280;5866;49.094;11.900;2022-07-01T06:03:53;96182.91;;;18.99;100.00
11621;BME280;5866;49.094;11.900;2022-07-01T06:06:21;96184.03;;;18.78;100.00
11621;BME280;5866;49.094;11.900;2022-07-01T06:08:48;96169.00;;;18.64;100.00
11621;BME280;5866;49.094;11.900;2022-07-01T06:11:16;96163.72;;;18.45;100.00
11621;BME280;5866;49.094;11.900;2022-07-01T06:13:43;96178.09;;;17.86;100.00
11621;BME280;5866;49.094;11.900;2022-07-01T06:16:11;96168.56;;;18.03;100.00
11621;BME280;5866;49.094;11.900;2022-07-01T06:18:39;96184.44;;;18.11;100.00
11621;BME280;5866;49.094;11.900;2022-07-01T06:21:07;96188.75;;;18.25;100.00
11621;BME280;5866;49.094;11.900;2022-07-01T06:23:35;96188.09;;;18.37;100.00
11621;BME280;5866;49.094;11.900;2022-07-01T06:26:04;96203.09;;;18.70;100.00
11621;BME280;5866;49.094;11.900;2022-07-01T06:28:31;96213.31;;;18.99;100.00
11621;BME280;5866;49.094;11.900;2022-07-01T06:30:59;96229.34;;;19.13;100.00
11621;BME280;5866;49.094;11.900;2022-07-01T06:33:27;96228.03;;;19.35;100.00
11621;BME280;5866;49.094;11.900;2022-07-01T06:35:57;96229.63;;;18.41;100.00
11621;BME280;5866;49.094;11.900;2022-07-01T06:38:25;96211.91;;;18.13;100.00
11621;BME280;5866;49.094;11.900;2022-07-01T06:40:53;96196.56;;;18.27;100.00
11621;BME280;5866;49.094;11.900;2022-07-01T06:43:38;96210.41;;;18.44;100.00
11621;BME280;5866;49.094;11.900;2022-07-01T06:46:06;96212.69;;;18.20;100.00
11621;BME280;5866;49.094;11.900;2022-07-01T06:48:34;96214.16;;;18.16;100.00
11621;BME280;5866;49.094;11.900;2022-07-01T06:51:02;96216.06;;;17.90;100.00
11621;BME280;5866;49.094;11.900;2022-07-01T06:53:31;96215.66;;;17.86;100.00
11621;BME280;5866;49.094;11.900;2022-07-01T06:55:58;96230.91;;;17.79;100.00
11621;BME280;5866;49.094;11.900;2022-07-01T06:58:26;96241.25;;;17.82;100.00
11621;BME280;5866;49.094;11.900;2022-07-01T07:00:53;96241.84;;;17.58;100.00
11621;BME280;5866;49.094;11.900;2022-07-01T07:03:21;96249.81;;;17.25;100.00
11621;BME280;5866;49.094;11.900;2022-07-01T07:05:49;96260.34;;;17.33;100.00
11621;BME280;5866;49.094;11.900;2022-07-01T07:08:18;96258.53;;;16.87;100.00
11621;BME280;5866;49.094;11.900;2022-07-01T07:10:47;96269.19;;;16.74;100.00
11621;BME280;5866;49.094;11.900;2022-07-01T07:13:15;96270.22;;;16.73;100.00
11621;BME280;5866;49.094;11.900;2022-07-01T07:15:42;96279.06;;;16.66;100.00
11621;BME280;5866;49.094;11.900;2022-07-01T07:18:10;96277.97;;;16.61;100.00
11621;BME280;5866;49.094;11.900;2022-07-01T07:20:38;96279.22;;;16.58;100.00
11621;BME280;5866;49.094;11.900;2022-07-01T07:23:05;96273.34;;;16.48;100.00
11621;BME280;5866;49.094;11.900;2022-07-01T07:25:33;96275.28;;;16.54;100.00
11621;BME280;5866;49.094;11.900;2022-07-01T07:28:02;96282.38;;;16.41;100.00
11621;BME280;5866;49.094;11.900;2022-07-01T07:30:29;96283.78;;;16.64;100.00
11621;BME280;5866;49.094;11.900;2022-07-01T07:32:57;96283.47;;;16.87;100.00
11621;BME280;5866;49.094;11.900;2022-07-01T07:35:27;96294.94;;;16.75;100.00
11621;BME280;5866;49.094;11.900;2022-07-01T07:37:55;96294.56;;;16.78;100.00
11621;BME280;5866;49.094;11.900;2022-07-01T07:40:22;96282.56;;;16.74;100.00
11621;BME280;5866;49.094;11.900;2022-07-01T07:42:50;96296.91;;;16.94;100.00
11621;BME280;5866;49.094;11.900;2022-07-01T07:45:19;96299.06;;;16.71;100.00
11621;BME280;5866;49.094;11.900;2022-07-01T07:47:48;96313.47;;;16.14;100.00
11621;BME280;5866;49.094;11.900;2022-07-01T07:50:16;96318.56;;;16.09;100.00
11621;BME280;5866;49.094;11.900;2022-07-01T07:52:43;96322.28;;;16.36;100.00
11621;BME280;5866;49.094;11.900;2022-07-01T07:55:11;96316.50;;;16.32;100.00
11621;BME280;5866;49.094;11.900;2022-07-01T07:57:39;96314.31;;;16.15;100.00
11621;BME280;5866;49.094;11.900;2022-07-01T08:00:09;96324.97;;;16.08;100.00
11621;BME280;5866;49.094;11.900;2022-07-01T08:02:39;96329.00;;;15.98;100.00
11621;BME280;5866;49.094;11.900;2022-07-01T08:05:08;96320.38;;;16.02;100.00
11621;BME280;5866;49.094;11.900;2022-07-01T08:07:36;96315.28;;;15.86;100.00
11621;BME280;5866;49.094;11.900;2022-07-01T08:10:07;96312.63;;;15.86;100.00
11621;BME280;5866;49.094;11.900;2022-07-01T08:12:35;96308.19;;;15.72;100.00
11621;BME280;5866;49.094;11.900;2022-07-01T08:15:04;96312.38;;;15.81;100.00
11621;BME280;5866;49.094;11.900;2022-07-01T08:17:31;96326.41;;;16.38;100.00
11621;BME280;5866;49.094;11.900;2022-07-01T08:20:01;96328.13;;;17.14;100.00
11621;BME280;5866;49.094;11.900;2022-07-01T08:22:28;96326.94;;;18.03;100.00
11621;BME280;5866;49.094;11.900;2022-07-01T08:24:56;96333.72;;;18.78;100.00
11621;BME280;5866;49.094;11.900;2022-07-01T08:27:24;96324.94;;;19.59;100.00
11621;BME280;5866;49.094;11.900;2022-07-01T08:29:51;96336.59;;;18.83;100.00
11621;BME280;5866;49.094;11.900;2022-07-01T08:32:19;96326.50;;;18.00;100.00
11621;BME280;5866;49.094;11.900;2022-07-01T08:34:48;96338.84;;;17.68;100.00
11621;BME280;5866;49.094;11.900;2022-07-01T08:37:17;96330.16;;;17.66;100.00
11621;BME280;5866;49.094;11.900;2022-07-01T08:39:44;96327.09;;;17.22;100.00
11621;BME280;5866;49.094;11.900;2022-07-01T08:42:12;96331.47;;;17.29;100.00
11621;BME280;5866;49.094;11.900;2022-07-01T08:44:39;96338.88;;;17.21;100.00
11621;BME280;5866;49.094;11.900;2022-07-01T08:47:11;96340.50;;;17.22;100.00
11621;BME280;5866;49.094;11.900;2022-07-01T08:49:38;96344.84;;;17.23;100.00
11621;BME280;5866;49.094;11.900;2022-07-01T08:52:06;96336.69;;;16.97;100.00
11621;BME280;5866;49.094;11.900;2022-07-01T08:54:37;96349.34;;;17.16;100.00
11621;BME280;5866;49.094;11.900;2022-07-01T08:57:05;96350.78;;;17.59;100.00
11621;BME280;5866;49.094;11.900;2022-07-01T08:59:34;96365.16;;;17.45;100.00
11621;BME280;5866;49.094;11.900;2022-07-01T09:02:03;96374.50;;;17.56;100.00
11621;BME280;5866;49.094;11.900;2022-07-01T09:04:31;96377.66;;;17.25;100.00
11621;BME280;5866;49.094;11.900;2022-07-01T09:07:03;96376.25;;;17.35;100.00
11621;BME280;5866;49.094;11.900;2022-07-01T09:09:34;96376.50;;;17.47;100.00
11621;BME280;5866;49.094;11.900;2022-07-01T09:12:05;96377.47;;;17.80;100.00
11621;BME280;5866;49.094;11.900;2022-07-01T09:14:33;96387.94;;;17.62;100.00
11621;BME280;5866;49.094;11.900;2022-07-01T09:17:03;96384.91;;;17.31;100.00
11621;BME280;5866;49.094;11.900;2022-07-01T09:19:32;96396.16;;;17.13;100.00
11621;BME280;5866;49.094;11.900;2022-07-01T09:22:02;96393.13;;;16.89;100.00
11621;BME280;5866;49.094;11.900;2022-07-01T09:24:33;96400.16;;;16.90;100.00
11621;BME280;5866;49.094;11.900;2022-07-01T09:27:04;96394.56;;;17.25;100.00
11621;BME280;5866;49.094;11.900;2022-07-01T09:29:37;96405.41;;;16.77;100.00
11621;BME280;5866;49.094;11.900;2022-07-01T09:32:06;96397.91;;;16.65;100.00
11621;BME280;5866;49.094;11.900;2022-07-01T09:34:35;96395.53;;;16.49;100.00
11621;BME280;5866;49.094;11.900;2022-07-01T09:37:04;96404.25;;;16.37;100.00
11621;BME280;5866;49.094;11.900;2022-07-01T09:39:41;96408.78;;;16.15;100.00
11621;BME280;5866;49.094;11.900;2022-07-01T09:42:11;96405.88;;;16.31;100.00
11621;BME280;5866;49.094;11.900;2022-07-01T09:44:51;96402.28;;;16.45;100.00
11621;BME280;5866;49.094;11.900;2022-07-01T09:47:26;96398.06;;;16.85;100.00
11621;BME280;5866;49.094;11.900;2022-07-01T09:49:55;96400.94;;;16.84;100.00
11621;BME280;5866;49.094;11.900;2022-07-01T09:52:23;96397.00;;;16.86;100.00
11621;BME280;5866;49.094;11.900;2022-07-01T09:54:52;96403.22;;;17.21;100.00
11621;BME280;5866;49.094;11.900;2022-07-01T09:57:22;96404.25;;;16.86;100.00
11621;BME280;5866;49.094;11.900;2022-07-01T09:59:50;96403.03;;;16.95;100.00
11621;BME280;5866;49.094;11.900;2022-07-01T10:02:20;96408.53;;;16.52;100.00
11621;BME280;5866;49.094;11.900;2022-07-01T10:04:51;96420.59;;;16.48;100.00
11621;BME280;5866;49.094;11.900;2022-07-01T10:07:33;96430.66;;;16.40;100.00
11621;BME280;5866;49.094;11.900;2022-07-01T10:10:13;96425.88;;;15.93;100.00
11621;BME280;5866;49.094;11.900;2022-07-01T10:12:46;96415.75;;;15.88;100.00
11621;BME280;5866;49.094;11.900;2022-07-01T10:15:17;96411.88;;;16.12;100.00
11621;BME280;5866;49.094;11.900;2022-07-01T10:17:47;96411.41;;;16.09;100.00
11621;BME280;5866;49.094;11.900;2022-07-01T10:20:17;96410.31;;;16.03;100.00
11621;BME280;5866;49.094;11.900;2022-07-01T10:22:50;96408.28;;;16.05;100.00
11621;BME280;5866;49.094;11.900;2022-07-01T10:25:42;96404.06;;;16.38;100.00
11621;BME280;5866;49.094;11.900;2022-07-01T10:28:27;96403.09;;;17.01;100.00
11621;BME280;5866;49.094;11.900;2022-07-01T10:31:00;96393.22;;;17.49;100.00
11621;BME280;5866;49.094;11.900;2022-07-01T10:33:39;96401.81;;;17.79;100.00
11621;BME280;5866;49.094;11.900;2022-07-01T10:36:15;96406.72;;;17.62;100.00
11621;BME280;5866;49.094;11.900;2022-07-01T10:41:56;96411.34;;;17.94;100.00
11621;BME280;5866;49.094;11.900;2022-07-01T10:47:39;96420.34;;;18.47;100.00
11621;BME280;5866;49.094;11.900;2022-07-01T10:50:09;96423.63;;;18.43;100.00
11621;BME280;5866;49.094;11.900;2022-07-01T10:52:37;96414.69;;;18.22;100.00
11621;BME280;5866;49.094;11.900;2022-07-01T10:55:09;96420.63;;;17.38;100.00
11621;BME280;5866;49.094;11.900;2022-07-01T10:57:38;96437.66;;;17.24;100.00
11621;BME280;5866;49.094;11.900;2022-07-01T11:00:33;96438.66;;;17.16;100.00
11621;BME280;5866;49.094;11.900;2022-07-01T11:03:13;96453.09;;;17.15;100.00
11621;BME280;5866;49.094;11.900;2022-07-01T11:05:41;96466.28;;;17.17;100.00
11621;BME280;5866;49.094;11.900;2022-07-01T11:08:09;96462.69;;;17.37;100.00
11621;BME280;5866;49.094;11.900;2022-07-01T11:10:42;96456.47;;;16.96;100.00
11621;BME280;5866;49.094;11.900;2022-07-01T11:13:13;96464.69;;;16.95;100.00
11621;BME280;5866;49.094;11.900;2022-07-01T11:15:44;96460.41;;;17.00;100.00
11621;BME280;5866;49.094;11.900;2022-07-01T11:18:15;96446.84;;;17.08;100.00
11621;BME280;5866;49.094;11.900;2022-07-01T11:20:43;96453.09;;;17.22;100.00
11621;BME280;5866;49.094;11.900;2022-07-01T11:23:11;96453.13;;;17.56;100.00
11621;BME280;5866;49.094;11.900;2022-07-01T11:25:39;96456.53;;;17.43;100.00
11621;BME280;5866;49.094;11.900;2022-07-01T11:28:07;96451.34;;;17.35;100.00
11621;BME280;5866;49.094;11.900;2022-07-01T11:30:35;96456.75;;;17.42;100.00
11621;BME280;5866;49.094;11.900;2022-07-01T11:33:02;96448.50;;;17.84;100.00
11621;BME280;5866;49.094;11.900;2022-07-01T11:35:32;96446.94;;;18.36;100.00
11621;BME280;5866;49.094;11.900;2022-07-01T11:38:19;96440.75;;;18.42;100.00
11621;BME280;5866;49.094;11.900;2022-07-01T11:41:06;96445.06;;;18.16;100.00
11621;BME280;5866;49.094;11.900;2022-07-01T11:43:37;96455.44;;;17.66;100.00
11621;BME280;5866;49.094;11.900;2022-07-01T11:46:06;96456.91;;;17.34;100.00
11621;BME280;5866;49.094;11.900;2022-07-01T11:48:37;96459.34;;;17.29;100.00
11621;BME280;5866;49.094;11.900;2022-07-01T11:51:09;96464.16;;;17.40;100.00
11621;BME280;5866;49.094;11.900;2022-07-01T11:53:39;96467.56;;;17.21;100.00
11621;BME280;5866;49.094;11.900;2022-07-01T11:56:08;96475.78;;;17.54;100.00
11621;BME280;5866;49.094;11.900;2022-07-01T11:58:47;96464.75;;;17.70;100.00
11621;BME280;5866;49.094;11.900;2022-07-01T12:01:27;96460.97;;;17.23;100.00
11621;BME280;5866;49.094;11.900;2022-07-01T12:03:57;96469.72;;;16.77;100.00
11621;BME280;5866;49.094;11.900;2022-07-01T12:06:27;96466.41;;;16.75;100.00
11621;BME280;5866;49.094;11.900;2022-07-01T12:08:56;96461.03;;;16.75;100.00
11621;BME280;5866;49.094;11.900;2022-07-01T12:11:25;96465.50;;;16.46;100.00
11621;BME280;5866;49.094;11.900;2022-07-01T12:13:53;96465.41;;;16.54;100.00
11621;BME280;5866;49.094;11.900;2022-07-01T12:16:23;96464.81;;;16.38;100.00
11621;BME280;5866;49.094;11.900;2022-07-01T12:18:53;96474.09;;;16.56;100.00
11621;BME280;5866;49.094;11.900;2022-07-01T12:21:22;96472.69;;;16.60;100.00
11621;BME280;5866;49.094;11.900;2022-07-01T12:24:05;96460.91;;;16.40;100.00
11621;BME280;5866;49.094;11.900;2022-07-01T12:26:33;96460.44;;;16.51;100.00
11621;BME280;5866;49.094;11.900;2022-07-01T12:29:00;96465.53;;;16.25;100.00
11621;BME280;5866;49.094;11.900;2022-07-01T12:31:28;96479.19;;;15.95;100.00
11621;BME280;5866;49.094;11.900;2022-07-01T12:33:56;96464.88;;;16.02;100.00
11621;BME280;5866;49.094;11.900;2022-07-01T12:36:23;96463.44;;;15.85;100.00
11621;BME280;5866;49.094;11.900;2022-07-01T12:39:04;96476.78;;;16.00;100.00
11621;BME280;5866;49.094;11.900;2022-07-01T12:41:33;96479.53;;;16.06;100.00
11621;BME280;5866;49.094;11.900;2022-07-01T12:44:06;96494.28;;;15.81;100.00
11621;BME280;5866;49.094;11.900;2022-07-01T12:46:33;96499.59;;;15.96;100.00
11621;BME280;5866;49.094;11.900;2022-07-01T12:49:01;96491.25;;;16.05;100.00
11621;BME280;5866;49.094;11.900;2022-07-01T12:51:30;96493.97;;;15.90;100.00
11621;BME280;5866;49.094;11.900;2022-07-01T12:53:59;96484.72;;;15.93;100.00
11621;BME280;5866;49.094;11.900;2022-07-01T12:56:28;96501.41;;;16.31;100.00
11621;BME280;5866;49.094;11.900;2022-07-01T12:58:56;96530.44;;;16.34;100.00
11621;BME280;5866;49.094;11.900;2022-07-01T13:01:24;96549.94;;;16.28;100.00
11621;BME280;5866;49.094;11.900;2022-07-01T13:03:52;96549.94;;;16.28;100.00
11621;BME280;5866;49.094;11.900;2022-07-01T13:06:19;96531.41;;;15.90;100.00
11621;BME280;5866;49.094;11.900;2022-07-01T13:08:47;96515.69;;;15.66;100.00